createdAt,value
2018-03-08T00:01:54.170Z,99605.26
2018-03-08T00:04:23.379Z,99601.97
2018-03-08T00:06:51.765Z,99604.84
2018-03-08T00:09:20.022Z,99606.48
2018-03-08T00:11:48.361Z,99605.19
2018-03-08T00:14:16.671Z,99604.40
2018-03-08T00:16:45.864Z,99605.59
2018-03-08T00:19:14.252Z,99610.85
2018-03-08T00:21:42.612Z,99607.25
2018-03-08T00:24:10.909Z,99613.44
2018-03-08T00:26:39.476Z,99609.63
2018-03-08T00:29:07.797Z,99607.09
2018-03-08T00:31:36.088Z,99605.55
2018-03-08T00:34:05.356Z,99609.23
2018-03-08T00:36:33.745Z,99607.20
2018-03-08T00:39:02.440Z,99604.77
2018-03-08T00:41:30.997Z,99603.52
2018-03-08T00:43:59.276Z,99601.13
2018-03-08T00:46:27.656Z,99603.62
2018-03-08T00:48:55.964Z,99611.72
2018-03-08T00:51:24.239Z,99612.58
2018-03-08T00:53:52.545Z,99610.91
2018-03-08T00:56:21.590Z,99607.66
2018-03-08T00:58:50.068Z,99605.44
2018-03-08T01:01:18.352Z,99607.92
2018-03-08T01:03:46.736Z,99602.63
2018-03-08T01:06:15.002Z,99600.92
2018-03-08T01:08:43.472Z,99602.67
2018-03-08T01:11:12.008Z,99606.70
2018-03-08T01:13:41.264Z,99612.47
2018-03-08T01:16:09.574Z,99610.98
2018-03-08T01:18:37.832Z,99596.00
2018-03-08T01:21:06.111Z,99595.05
2018-03-08T01:23:34.410Z,99591.38
2018-03-08T01:26:03.453Z,99600.81
2018-03-08T01:28:32.034Z,99602.59
2018-03-08T01:31:00.340Z,99600.23
2018-03-08T01:33:28.709Z,99596.99
2018-03-08T01:35:56.998Z,99589.64
2018-03-08T01:38:25.310Z,99588.77
2018-03-08T01:40:53.636Z,99597.78
2018-03-08T01:43:22.032Z,99596.99
2018-03-08T01:45:50.469Z,99588.44
2018-03-08T01:48:19.522Z,99598.30
2018-03-08T01:50:47.831Z,99597.53
2018-03-08T01:53:16.972Z,99600.41
2018-03-08T01:55:46.195Z,99601.25
2018-03-08T01:58:14.893Z,99605.01
2018-03-08T02:00:43.669Z,99601.75
2018-03-08T02:03:12.339Z,99596.41
2018-03-08T02:05:40.828Z,99595.94
2018-03-08T02:08:09.112Z,99591.52
2018-03-08T02:10:37.888Z,99587.39
2018-03-08T02:13:06.360Z,99587.88
2018-03-08T02:15:34.678Z,99589.63
2018-03-08T02:18:02.941Z,99584.37
2018-03-08T02:20:31.535Z,99592.60
2018-03-08T02:22:59.829Z,99591.42
2018-03-08T02:25:28.093Z,99587.31
2018-03-08T02:27:56.653Z,99583.58
2018-03-08T02:30:24.937Z,99588.52
2018-03-08T02:32:53.932Z,99588.94
2018-03-08T02:35:22.236Z,99586.80
2018-03-08T02:37:51.130Z,99585.15
2018-03-08T02:40:20.162Z,99589.72
2018-03-08T02:42:48.481Z,99589.72
2018-03-08T02:45:17.572Z,99581.95
2018-03-08T02:47:45.840Z,99583.66
2018-03-08T02:50:14.329Z,99573.72
2018-03-08T02:52:42.609Z,99577.80
2018-03-08T02:55:10.886Z,99577.36
2018-03-08T02:57:39.190Z,99582.20
2018-03-08T03:00:07.475Z,99583.80
2018-03-08T03:02:36.293Z,99587.52
2018-03-08T03:05:05.368Z,99583.80
2018-03-08T03:07:33.650Z,99585.45
2018-03-08T03:10:04.076Z,99576.82
2018-03-08T03:12:34.058Z,99584.20
2018-03-08T03:15:02.327Z,99578.86
2018-03-08T03:17:30.610Z,99586.23
2018-03-08T03:19:59.848Z,99586.67
2018-03-08T03:22:29.906Z,99582.17
2018-03-08T03:24:59.323Z,99580.55
2018-03-08T03:27:27.608Z,99576.33
2018-03-08T03:29:56.076Z,99579.20
2018-03-08T03:32:25.812Z,99581.73
2018-03-08T03:34:54.092Z,99582.48
2018-03-08T03:37:22.555Z,99579.13
2018-03-08T03:39:50.833Z,99582.74
2018-03-08T03:42:19.632Z,99583.61
2018-03-08T03:44:48.300Z,99583.58
2018-03-08T03:47:16.691Z,99579.25
2018-03-08T03:49:44.953Z,99586.09
2018-03-08T03:52:13.561Z,99582.63
2018-03-08T03:54:41.850Z,99581.30
2018-03-08T03:57:11.146Z,99588.14
2018-03-08T03:59:39.692Z,99592.92
2018-03-08T04:02:08.816Z,99583.89
2018-03-08T04:04:37.091Z,99586.37
2018-03-08T04:07:05.716Z,99590.16
2018-03-08T04:09:34.021Z,99589.79
2018-03-08T04:12:03.259Z,99587.38
2018-03-08T04:14:31.953Z,99591.83
2018-03-08T04:17:00.237Z,99588.19
2018-03-08T04:19:29.028Z,99590.70
2018-03-08T04:21:57.373Z,99584.68
2018-03-08T04:24:26.103Z,99592.16
2018-03-08T04:26:54.381Z,99588.86
2018-03-08T04:29:22.899Z,99591.73
2018-03-08T04:31:51.936Z,99590.05
2018-03-08T04:34:20.249Z,99586.82
2018-03-08T04:36:48.812Z,99585.52
2018-03-08T04:39:17.086Z,99593.33
2018-03-08T04:41:45.976Z,99597.93
2018-03-08T04:44:14.310Z,99600.83
2018-03-08T04:46:43.451Z,99595.84
2018-03-08T04:49:11.717Z,99598.33
2018-03-08T04:51:40.014Z,99597.22
2018-03-08T04:54:08.488Z,99591.00
2018-03-08T04:56:36.798Z,99593.45
2018-03-08T04:59:05.888Z,99593.80
2018-03-08T05:01:34.180Z,99590.58
2018-03-08T05:04:02.444Z,99596.85
2018-03-08T05:06:30.796Z,99588.33
2018-03-08T05:08:59.276Z,99593.90
2018-03-08T05:11:27.564Z,99595.13
2018-03-08T05:13:55.832Z,99598.47
2018-03-08T05:16:24.196Z,99599.73
2018-03-08T05:18:52.501Z,99593.16
2018-03-08T05:21:21.176Z,99597.27
2018-03-08T05:23:49.489Z,99597.29
2018-03-08T05:26:17.785Z,99600.05
2018-03-08T05:28:46.840Z,99604.17
2018-03-08T05:31:15.831Z,99604.67
2018-03-08T05:33:44.103Z,99605.16
2018-03-08T05:36:12.422Z,99602.20
2018-03-08T05:38:42.328Z,99601.89
2018-03-08T05:41:11.796Z,99604.34
2018-03-08T05:43:41.160Z,99605.55
2018-03-08T05:46:10.194Z,99607.54
2018-03-08T05:48:38.821Z,99614.47
2018-03-08T05:51:07.084Z,99605.90
2018-03-08T05:53:35.425Z,99614.10
2018-03-08T05:56:03.764Z,99615.07
2018-03-08T05:58:32.823Z,99620.79
2018-03-08T06:01:01.101Z,99622.47
2018-03-08T06:03:30.155Z,99631.98
2018-03-08T06:05:58.429Z,99636.16
2018-03-08T06:08:26.688Z,99640.70
2018-03-08T06:10:56.370Z,99638.72
2018-03-08T06:13:25.272Z,99643.34
2018-03-08T06:15:53.549Z,99636.75
2018-03-08T06:18:21.852Z,99640.91
2018-03-08T06:20:50.908Z,99646.21
2018-03-08T06:23:19.184Z,99647.98
2018-03-08T06:25:47.567Z,99647.98
2018-03-08T06:28:16.435Z,99652.09
2018-03-08T06:30:44.700Z,99653.17
2018-03-08T06:33:13.613Z,99660.48
2018-03-08T06:35:41.880Z,99666.37
2018-03-08T06:38:10.974Z,99663.08
2018-03-08T06:40:39.355Z,99662.77
2018-03-08T06:43:07.728Z,99665.03
2018-03-08T06:45:36.021Z,99660.98
2018-03-08T06:48:04.396Z,99665.13
2018-03-08T06:50:32.979Z,99660.58
2018-03-08T06:53:01.267Z,99667.52
2018-03-08T06:55:29.541Z,99663.55
2018-03-08T06:57:58.029Z,99661.92
2018-03-08T07:00:26.312Z,99666.50
2018-03-08T07:02:55.396Z,99670.33
2018-03-08T07:05:23.788Z,99668.87
2018-03-08T07:07:52.084Z,99675.90
2018-03-08T07:10:21.283Z,99679.54
2018-03-08T07:12:49.957Z,99682.13
2018-03-08T07:15:18.258Z,99686.02
2018-03-08T07:17:46.618Z,99689.62
2018-03-08T07:20:14.889Z,99695.84
2018-03-08T07:22:43.167Z,99689.84
2018-03-08T07:25:11.460Z,99694.34
2018-03-08T07:27:40.683Z,99705.14
2018-03-08T07:30:09.731Z,99704.33
2018-03-08T07:32:38.029Z,99699.86
2018-03-08T07:35:07.017Z,99705.16
2018-03-08T07:37:35.331Z,99700.11
2018-03-08T07:40:04.368Z,99710.05
2018-03-08T07:42:32.816Z,99706.78
2018-03-08T07:45:01.991Z,99717.84
2018-03-08T07:47:30.236Z,99716.68
2018-03-08T07:49:59.441Z,99724.68
2018-03-08T07:52:27.744Z,99728.92
2018-03-08T07:54:57.432Z,99732.17
2018-03-08T07:57:25.701Z,99730.92
2018-03-08T07:59:54.009Z,99733.36
2018-03-08T08:02:22.302Z,99733.02
2018-03-08T08:05:08.420Z,99742.83
2018-03-08T08:07:54.425Z,99746.23
2018-03-08T08:10:23.032Z,99744.63
2018-03-08T08:12:51.309Z,99741.41
2018-03-08T08:15:19.565Z,99758.64
2018-03-08T08:17:48.775Z,99754.74
2018-03-08T08:20:17.220Z,99776.95
2018-03-08T08:22:46.264Z,99777.14
2018-03-08T08:25:14.574Z,99771.22
2018-03-08T08:27:42.972Z,99770.31
2018-03-08T08:30:12.326Z,99779.72
2018-03-08T08:32:40.797Z,99775.58
2018-03-08T08:35:09.068Z,99779.17
2018-03-08T08:37:37.352Z,99782.35
2018-03-08T08:40:05.747Z,99783.37
2018-03-08T08:42:34.353Z,99785.28
2018-03-08T08:45:03.024Z,99783.30
2018-03-08T08:47:31.521Z,99783.86
2018-03-08T08:50:00.041Z,99791.18
2018-03-08T08:52:29.088Z,99789.66
2018-03-08T08:54:57.549Z,99790.09
2018-03-08T08:57:27.388Z,99793.03
2018-03-08T08:59:55.688Z,99795.00
2018-03-08T09:02:24.315Z,99794.40
2018-03-08T09:04:53.973Z,99800.11
2018-03-08T09:07:23.080Z,99796.13
2018-03-08T09:09:51.864Z,99804.02
2018-03-08T09:12:20.855Z,99800.56
2018-03-08T09:14:50.676Z,99797.46
2018-03-08T09:17:19.328Z,99802.95
2018-03-08T09:19:48.545Z,99802.22
2018-03-08T09:22:16.840Z,99803.20
2018-03-08T09:24:45.149Z,99805.30
2018-03-08T09:27:14.176Z,99800.51
2018-03-08T09:29:42.511Z,99805.59
2018-03-08T09:32:11.536Z,99800.23
2018-03-08T09:34:40.453Z,99798.04
2018-03-08T09:37:08.744Z,99806.39
2018-03-08T09:39:37.336Z,99805.37
2018-03-08T09:42:05.605Z,99804.59
2018-03-08T09:44:33.941Z,99798.58
2018-03-08T09:47:02.650Z,99800.63
2018-03-08T09:49:30.916Z,99803.72
2018-03-08T09:51:59.504Z,99800.48
2018-03-08T09:54:28.411Z,99804.58
2018-03-08T09:56:56.789Z,99805.28
2018-03-08T09:59:25.290Z,99807.02
2018-03-08T10:01:53.652Z,99807.80
2018-03-08T10:04:21.919Z,99808.98
2018-03-08T10:06:50.293Z,99800.61
2018-03-08T10:09:19.028Z,99803.89
2018-03-08T10:11:47.371Z,99806.68
2018-03-08T10:14:15.736Z,99811.77
2018-03-08T10:16:44.330Z,99806.95
2018-03-08T10:19:12.598Z,99803.53
2018-03-08T10:21:44.517Z,99808.36
2018-03-08T10:24:09.200Z,99813.54
2018-03-08T10:26:37.464Z,99807.45
2018-03-08T10:29:06.369Z,99810.39
2018-03-08T10:31:35.012Z,99816.59
2018-03-08T10:34:04.136Z,99814.84
2018-03-08T10:36:32.829Z,99813.98
2018-03-08T10:39:01.180Z,99813.23
2018-03-08T10:43:58.872Z,99820.08
2018-03-08T10:46:27.157Z,99811.98
2018-03-08T10:51:23.896Z,99807.39
2018-03-08T10:53:52.162Z,99805.05
2018-03-08T10:56:21.027Z,99798.23
2018-03-08T10:58:50.076Z,99803.39
2018-03-08T11:01:23.816Z,99808.81
2018-03-08T11:03:54.972Z,99807.70
2018-03-08T11:06:28.996Z,99810.17
2018-03-08T11:08:58.060Z,99804.71
2018-03-08T11:11:26.319Z,99803.29
2018-03-08T11:13:54.587Z,99798.96
2018-03-08T11:16:23.289Z,99807.02
2018-03-08T11:18:52.148Z,99800.85
2018-03-08T11:21:20.548Z,99808.86
2018-03-08T11:23:48.916Z,99806.09
2018-03-08T11:26:17.195Z,99805.44
2018-03-08T11:28:45.672Z,99799.81
2018-03-08T11:31:13.965Z,99803.20
2018-03-08T11:33:42.966Z,99798.36
2018-03-08T11:36:11.257Z,99798.76
2018-03-08T11:38:39.699Z,99794.83
2018-03-08T11:41:07.977Z,99788.91
2018-03-08T11:43:36.277Z,99791.39
2018-03-08T11:46:04.567Z,99789.17
2018-03-08T11:48:33.842Z,99787.49
2018-03-08T11:51:01.527Z,99781.35
2018-03-08T11:53:29.794Z,99791.23
2018-03-08T11:55:58.080Z,99786.70
2018-03-08T11:58:26.402Z,99782.64
2018-03-08T12:00:56.186Z,99777.73
2018-03-08T12:03:24.779Z,99777.31
2018-03-08T12:05:53.254Z,99778.77
2018-03-08T12:08:21.524Z,99777.23
2018-03-08T12:10:50.416Z,99776.41
2018-03-08T12:13:19.548Z,99778.39
2018-03-08T12:15:48.722Z,99785.09
2018-03-08T12:18:16.988Z,99778.97
2018-03-08T12:20:45.407Z,99774.02
2018-03-08T12:23:14.437Z,99776.90
2018-03-08T12:25:42.725Z,99778.57
2018-03-08T12:28:11.238Z,99771.13
2018-03-08T12:30:39.507Z,99767.38
2018-03-08T12:33:08.216Z,99764.05
2018-03-08T12:35:37.080Z,99765.31
2018-03-08T12:38:05.970Z,99767.41
2018-03-08T12:40:34.968Z,99774.41
2018-03-08T12:43:03.818Z,99772.78
2018-03-08T12:45:32.084Z,99761.62
2018-03-08T12:48:00.367Z,99755.03
2018-03-08T12:50:28.777Z,99748.73
2018-03-08T12:52:57.347Z,99734.28
2018-03-08T12:55:26.242Z,99724.86
2018-03-08T12:57:55.548Z,99719.78
2018-03-08T13:00:24.749Z,99708.16
2018-03-08T13:02:53.055Z,99712.05
2018-03-08T13:05:21.716Z,99707.53
2018-03-08T13:07:50.296Z,99703.03
2018-03-08T13:10:18.814Z,99700.91
2018-03-08T13:12:47.232Z,99689.73
2018-03-08T13:15:15.524Z,99689.63
2018-03-08T13:17:43.792Z,99689.39
2018-03-08T13:20:12.096Z,99685.51
2018-03-08T13:22:40.490Z,99681.75
2018-03-08T13:25:08.765Z,99677.86
2018-03-08T13:27:37.161Z,99676.75
2018-03-08T13:30:05.451Z,99671.34
2018-03-08T13:32:33.809Z,99667.45
2018-03-08T13:35:02.138Z,99662.46
2018-03-08T13:37:31.651Z,99653.28
2018-03-08T13:39:59.928Z,99654.45
2018-03-08T13:42:28.440Z,99647.23
2018-03-08T13:44:56.699Z,99634.87
2018-03-08T13:47:24.987Z,99633.22
2018-03-08T13:49:53.283Z,99625.30
2018-03-08T13:52:21.656Z,99632.26
2018-03-08T13:54:49.928Z,99637.56
2018-03-08T13:57:18.216Z,99631.66
2018-03-08T13:59:46.580Z,99630.98
2018-03-08T14:02:14.926Z,99629.22
2018-03-08T14:04:43.172Z,99633.20
2018-03-08T14:07:11.454Z,99631.85
2018-03-08T14:09:40.271Z,99619.09
2018-03-08T14:12:08.949Z,99609.97
2018-03-08T14:14:38.007Z,99605.11
2018-03-08T14:17:06.775Z,99604.00
2018-03-08T14:19:35.199Z,99606.80
2018-03-08T14:22:03.487Z,99605.23
2018-03-08T14:24:31.783Z,99598.43
2018-03-08T14:27:00.886Z,99591.50
2018-03-08T14:29:30.028Z,99579.93
2018-03-08T14:31:58.345Z,99578.13
2018-03-08T14:34:27.100Z,99579.26
2018-03-08T14:36:56.076Z,99583.67
2018-03-08T14:39:24.393Z,99578.80
2018-03-08T14:41:52.684Z,99581.30
2018-03-08T14:44:21.734Z,99578.29
2018-03-08T14:46:50.229Z,99576.30
2018-03-08T14:49:18.514Z,99571.84
2018-03-08T14:51:46.801Z,99570.05
2018-03-08T14:54:15.093Z,99567.75
2018-03-08T14:56:44.128Z,99566.92
2018-03-08T14:59:12.410Z,99561.67
2018-03-08T15:01:40.729Z,99549.31
2018-03-08T15:04:08.997Z,99549.81
2018-03-08T15:06:37.269Z,99545.66
2018-03-08T15:09:06.000Z,99542.73
2018-03-08T15:11:34.254Z,99535.31
2018-03-08T15:14:02.521Z,99529.44
2018-03-08T15:16:30.838Z,99529.77
2018-03-08T15:18:59.136Z,99522.38
2018-03-08T15:21:27.441Z,99525.29
2018-03-08T15:23:55.813Z,99518.27
2018-03-08T15:26:24.108Z,99519.48
2018-03-08T15:28:52.495Z,99519.07
2018-03-08T15:31:20.838Z,99514.19
2018-03-08T15:33:49.199Z,99510.09
2018-03-08T15:36:17.474Z,99513.02
2018-03-08T15:38:45.785Z,99512.33
2018-03-08T15:41:14.939Z,99513.57
2018-03-08T15:43:43.971Z,99511.43
2018-03-08T15:46:12.613Z,99508.16
2018-03-08T15:48:42.425Z,99508.17
2018-03-08T15:51:11.453Z,99508.24
2018-03-08T15:53:39.728Z,99494.59
2018-03-08T15:56:08.964Z,99499.59
2018-03-08T15:58:37.229Z,99498.42
2018-03-08T16:01:06.855Z,99493.05
2018-03-08T16:03:35.160Z,99499.72
2018-03-08T16:06:04.198Z,99498.51
2018-03-08T16:08:53.972Z,99503.89
2018-03-08T16:11:22.258Z,99498.52
2018-03-08T16:13:50.530Z,99493.58
2018-03-08T16:16:18.911Z,99497.73
2018-03-08T16:18:47.731Z,99496.45
2018-03-08T16:21:16.415Z,99493.55
2018-03-08T16:23:44.945Z,99494.83
2018-03-08T16:26:14.012Z,99490.37
2018-03-08T16:28:42.271Z,99489.53
2018-03-08T16:31:10.641Z,99485.85
2018-03-08T16:33:39.024Z,99491.23
2018-03-08T16:36:07.291Z,99488.78
2018-03-08T16:38:35.589Z,99495.05
2018-03-08T16:41:03.873Z,99497.12
2018-03-08T16:43:32.684Z,99500.04
2018-03-08T16:46:00.951Z,99507.06
2018-03-08T16:48:29.497Z,99509.20
2018-03-08T16:50:57.768Z,99512.11
2018-03-08T16:53:27.272Z,99517.92
2018-03-08T16:55:56.109Z,99514.22
2018-03-08T16:58:24.389Z,99510.08
2018-03-08T17:00:53.477Z,99514.63
2018-03-08T17:03:21.796Z,99511.72
2018-03-08T17:05:50.843Z,99517.51
2018-03-08T17:08:19.500Z,99522.86
2018-03-08T17:10:47.766Z,99514.60
2018-03-08T17:13:16.022Z,99524.06
2018-03-08T17:15:45.077Z,99519.53
2018-03-08T17:18:13.374Z,99524.89
2018-03-08T17:20:42.400Z,99537.26
2018-03-08T17:23:10.783Z,99536.45
2018-03-08T17:25:39.071Z,99551.28
2018-03-08T17:28:07.352Z,99549.23
2018-03-08T17:30:35.656Z,99546.73
2018-03-08T17:33:03.920Z,99547.55
2018-03-08T17:35:32.194Z,99547.94
2018-03-08T17:38:00.531Z,99542.52
2018-03-08T17:40:29.583Z,99535.50
2018-03-08T17:42:57.846Z,99533.81
2018-03-08T17:45:27.756Z,99536.64
2018-03-08T17:47:56.148Z,99533.75
2018-03-08T17:50:24.524Z,99532.89
2018-03-08T17:52:52.808Z,99530.77
2018-03-08T17:55:21.288Z,99532.75
2018-03-08T17:57:49.585Z,99531.94
2018-03-08T18:00:17.863Z,99529.04
2018-03-08T18:02:46.281Z,99526.95
2018-03-08T18:05:15.326Z,99518.68
2018-03-08T18:07:44.520Z,99531.50
2018-03-08T18:10:13.108Z,99527.36
2018-03-08T18:12:41.399Z,99535.58
2018-03-08T18:15:09.669Z,99536.44
2018-03-08T18:17:37.960Z,99546.31
2018-03-08T18:20:06.277Z,99531.45
2018-03-08T18:22:34.532Z,99520.27
2018-03-08T18:25:03.073Z,99522.34
2018-03-08T18:27:31.353Z,99518.60
2018-03-08T18:29:59.648Z,99509.10
2018-03-08T18:32:27.943Z,99518.16
2018-03-08T18:34:56.236Z,99508.61
2018-03-08T18:37:25.277Z,99504.89
2018-03-08T18:39:53.587Z,99500.34
2018-03-08T18:42:21.874Z,99501.12
2018-03-08T18:44:50.924Z,99503.20
2018-03-08T18:47:19.327Z,99500.68
2018-03-08T18:49:47.600Z,99500.70
2018-03-08T18:52:16.052Z,99499.44
2018-03-08T18:54:44.337Z,99499.00
2018-03-08T18:57:13.128Z,99497.30
2018-03-08T18:59:41.630Z,99493.59
2018-03-08T19:02:12.922Z,99491.54
2018-03-08T19:04:42.167Z,99496.89
2018-03-08T19:07:11.301Z,99494.83
2018-03-08T19:09:39.592Z,99497.25
2018-03-08T19:12:08.281Z,99496.91
2018-03-08T19:14:37.345Z,99500.98
2018-03-08T19:17:05.610Z,99493.99
2018-03-08T19:19:34.006Z,99496.49
2018-03-08T19:22:02.498Z,99495.63
2018-03-08T19:24:31.516Z,99501.91
2018-03-08T19:27:00.771Z,99492.80
2018-03-08T19:29:29.282Z,99494.42
2018-03-08T19:31:58.132Z,99503.94
2018-03-08T19:34:26.425Z,99504.34
2018-03-08T19:36:54.699Z,99498.13
2018-03-08T19:39:22.992Z,99499.83
2018-03-08T19:41:51.461Z,99499.41
2018-03-08T19:44:19.856Z,99503.94
2018-03-08T19:46:48.609Z,99501.08
2018-03-08T19:49:18.060Z,99492.06
2018-03-08T19:51:46.329Z,99494.48
2018-03-08T19:54:14.597Z,99490.72
2018-03-08T19:56:42.881Z,99483.72
2018-03-08T19:59:11.170Z,99488.30
2018-03-08T20:01:40.967Z,99484.96
2018-03-08T20:04:09.512Z,99486.23
2018-03-08T20:06:37.817Z,99500.64
2018-03-08T20:09:06.226Z,99494.42
2018-03-08T20:11:34.501Z,99491.09
2018-03-08T20:14:02.859Z,99496.80
2018-03-08T20:16:31.153Z,99500.48
2018-03-08T20:19:00.031Z,99505.81
2018-03-08T20:21:28.297Z,99502.53
2018-03-08T20:23:56.629Z,99500.50
2018-03-08T20:26:25.779Z,99502.14
2018-03-08T20:28:54.071Z,99497.98
2018-03-08T20:31:22.741Z,99501.23
2018-03-08T20:33:51.021Z,99500.73
2018-03-08T20:36:20.460Z,99497.81
2018-03-08T20:38:48.807Z,99493.70
2018-03-08T20:41:17.076Z,99492.89
2018-03-08T20:43:46.021Z,99491.61
2018-03-08T20:46:15.092Z,99486.68
2018-03-08T20:48:43.357Z,99495.67
2018-03-08T20:51:11.630Z,99494.42
2018-03-08T20:53:39.937Z,99491.10
2018-03-08T20:56:08.419Z,99486.56
2018-03-08T20:58:37.449Z,99489.33
2018-03-08T21:01:06.526Z,99493.09
2018-03-08T21:03:35.606Z,99488.95
2018-03-08T21:06:03.892Z,99486.96
2018-03-08T21:08:32.988Z,99488.16
2018-03-08T21:11:01.889Z,99493.89
2018-03-08T21:13:30.921Z,99497.14
2018-03-08T21:15:59.229Z,99498.34
2018-03-08T21:18:28.309Z,99498.39
2018-03-08T21:20:56.595Z,99505.06
2018-03-08T21:23:24.889Z,99504.58
2018-03-08T21:25:53.147Z,99500.89
2018-03-08T21:28:21.942Z,99498.67
2018-03-08T21:30:50.208Z,99498.66
2018-03-08T21:33:19.552Z,99500.79
2018-03-08T21:35:48.210Z,99498.61
2018-03-08T21:38:16.497Z,99502.25
2018-03-08T21:40:44.888Z,99505.55
2018-03-08T21:43:13.235Z,99506.78
2018-03-08T21:45:41.523Z,99513.23
2018-03-08T21:48:09.829Z,99515.78
2018-03-08T21:50:38.098Z,99507.81
2018-03-08T21:53:06.512Z,99510.20
2018-03-08T21:55:35.851Z,99518.81
2018-03-08T21:58:04.170Z,99518.41
2018-03-08T22:00:32.530Z,99515.89
2018-03-08T22:03:00.801Z,99518.26
2018-03-08T22:05:29.073Z,99514.89
2018-03-08T22:07:57.381Z,99512.78
2018-03-08T22:10:25.636Z,99509.50
2018-03-08T22:12:53.921Z,99512.43
2018-03-08T22:15:22.228Z,99511.21
2018-03-08T22:17:51.245Z,99511.15
2018-03-08T22:20:20.336Z,99513.14
2018-03-08T22:22:48.648Z,99516.41
2018-03-08T22:25:17.072Z,99509.10
2018-03-08T22:27:45.344Z,99508.31
2018-03-08T22:30:13.680Z,99514.03
2018-03-08T22:32:41.968Z,99510.78
2018-03-08T22:35:10.232Z,99514.00
2018-03-08T22:37:39.150Z,99508.19
2018-03-08T22:40:07.417Z,99505.80
2018-03-08T22:42:35.676Z,99505.47
2018-03-08T22:45:04.088Z,99512.78
2018-03-08T22:47:32.448Z,99504.40
2018-03-08T22:50:01.370Z,99514.95
2018-03-08T22:52:29.942Z,99510.86
2018-03-08T22:54:58.222Z,99512.87
2018-03-08T22:57:26.502Z,99516.36
2018-03-08T22:59:54.781Z,99515.16
2018-03-08T23:02:28.632Z,99511.34
2018-03-08T23:04:57.249Z,99505.21
2018-03-08T23:07:25.509Z,99499.02
2018-03-08T23:09:55.159Z,99500.13
2018-03-08T23:12:23.449Z,99501.46
2018-03-08T23:14:51.969Z,99495.73
2018-03-08T23:17:20.252Z,99500.70
2018-03-08T23:19:48.542Z,99505.55
2018-03-08T23:22:17.893Z,99502.75
2018-03-08T23:24:46.229Z,99499.86
2018-03-08T23:27:15.020Z,99506.45
2018-03-08T23:29:43.324Z,99509.71
2018-03-08T23:32:12.381Z,99504.35
2018-03-08T23:34:40.968Z,99497.02
2018-03-08T23:37:09.265Z,99504.04
2018-03-08T23:39:37.660Z,99499.92
2018-03-08T23:42:06.132Z,99499.52
2018-03-08T23:44:34.406Z,99489.26
2018-03-08T23:47:02.687Z,99485.85
2018-03-08T23:49:31.058Z,99500.34
2018-03-08T23:51:59.331Z,99495.78
2018-03-08T23:54:27.603Z,99497.81
2018-03-08T23:56:55.911Z,99496.16
2018-03-08T23:59:24.916Z,99496.53
